Time;durP1;ratioP1;P1;durP2;ratioP2;P2;SDS_P1;SDS_P2;PMS_P1;PMS_P2;Temp;Humidity;BMP_temperature;BMP_pressure;BME280_temperature;BME280_humidity;BME280_pressure;Samples;Min_cycle;Max_cycle;Signal;HPM_P1;HPM_P2
2021/08/25 00:00:00;;;;;;;6.13;5.73;;;22.30;37.20;;;;;;5052972;28;20414;-66
2021/08/25 00:02:25;;;;;;;6.97;6.47;;;22.30;37.20;;;;;;5052636;28;20407;-66
2021/08/25 00:04:51;;;;;;;6.60;6.10;;;22.30;37.20;;;;;;5052784;28;20180;-66
2021/08/25 00:07:16;;;;;;;7.60;6.90;;;22.30;38.00;;;;;;5052719;28;20187;-66
2021/08/25 00:09:43;;;;;;;6.67;6.20;;;22.20;37.10;;;;;;5052720;28;20172;-66
2021/08/25 00:12:10;;;;;;;7.60;7.10;;;22.30;37.30;;;;;;5052850;28;20210;-66
2021/08/25 00:14:37;;;;;;;6.93;6.43;;;22.30;37.20;;;;;;5052636;28;20407;-66
2021/08/25 00:17:03;;;;;;;7.10;6.60;;;22.20;37.20;;;;;;5052623;28;20411;-66
2021/08/25 00:19:29;;;;;;;6.70;6.30;;;22.20;37.10;;;;;;5052557;28;20460;-66
2021/08/25 00:21:54;;;;;;;6.57;6.10;;;22.20;37.20;;;;;;5052574;28;20245;-66
2021/08/25 00:24:20;;;;;;;7.87;7.13;;;22.20;37.20;;;;;;5052574;28;20629;-66
2021/08/25 00:26:46;;;;;;;6.83;6.33;;;22.20;37.10;;;;;;5052346;28;20834;-66
2021/08/25 00:29:13;;;;;;;6.50;6.03;;;22.20;37.10;;;;;;5052411;28;20430;-66
2021/08/25 00:31:40;;;;;;;7.10;6.60;;;22.20;37.20;;;;;;5052344;28;20485;-66
2021/08/25 00:34:06;;;;;;;7.17;6.67;;;22.20;37.20;;;;;;5052479;28;20461;-66
2021/08/25 00:36:32;;;;;;;6.57;5.97;;;22.20;37.10;;;;;;5052154;28;20413;-66
2021/08/25 00:38:57;;;;;;;6.47;6.03;;;22.20;37.20;;;;;;5052392;28;20513;-66
2021/08/25 00:41:23;;;;;;;7.20;6.70;;;22.20;37.10;;;;;;5052541;28;20643;-66
2021/08/25 00:43:48;;;;;;;6.50;6.10;;;22.20;37.10;;;;;;5052266;28;20180;-66
2021/08/25 00:46:14;;;;;;;7.50;7.00;;;22.20;37.10;;;;;;5051980;28;20184;-66
2021/08/25 00:48:40;;;;;;;6.73;6.23;;;22.20;37.10;;;;;;5052110;28;20199;-66
2021/08/25 00:51:06;;;;;;;5.73;5.43;;;22.20;37.10;;;;;;5051999;28;20207;-66
2021/08/25 00:53:32;;;;;;;6.57;6.07;;;22.20;37.10;;;;;;5052090;28;20696;-66
2021/08/25 00:55:58;;;;;;;7.43;6.93;;;22.20;37.10;;;;;;5051896;28;20410;-66
2021/08/25 00:58:27;;;;;;;6.87;6.37;;;22.20;37.10;;;;;;5051903;28;20235;-66
2021/08/25 01:01:02;;;;;;;7.00;6.30;;;22.20;37.10;;;;;;5052181;28;20844;-66
2021/08/25 01:03:36;;;;;;;6.50;6.00;;;22.20;37.20;;;;;;5051874;28;20497;-66
2021/08/25 01:06:02;;;;;;;6.60;6.10;;;22.20;37.10;;;;;;5051794;28;20766;-66
2021/08/25 01:08:28;;;;;;;7.07;6.50;;;22.20;37.10;;;;;;5051790;28;20422;-66
2021/08/25 01:11:10;;;;;;;6.27;5.87;;;22.20;37.20;;;;;;5051928;28;20553;-66
2021/08/25 01:13:37;;;;;;;6.80;6.30;;;22.20;37.20;;;;;;5051320;28;20180;-66
2021/08/25 01:16:02;;;;;;;6.73;6.33;;;22.20;37.90;;;;;;5051624;28;20766;-66
2021/08/25 01:18:28;;;;;;;6.50;6.03;;;22.20;37.20;;;;;;5051564;28;20426;-66
2021/08/25 01:20:56;;;;;;;6.73;6.23;;;22.20;37.20;;;;;;5051705;28;20210;-66
2021/08/25 01:26:46;;;;;;;6.57;6.17;;;22.10;37.10;;;;;;5051631;28;20389;-66
2021/08/25 01:29:31;;;;;;;6.37;5.77;;;22.10;37.20;;;;;;5051736;28;20813;-66
2021/08/25 01:31:57;;;;;;;7.50;6.80;;;22.10;37.20;;;;;;5051639;28;20480;-66
2021/08/25 01:34:22;;;;;;;5.93;5.53;;;22.10;37.20;;;;;;5051516;28;20916;-66
2021/08/25 01:36:50;;;;;;;6.57;6.13;;;22.10;37.20;;;;;;5051412;28;20551;-66
2021/08/25 01:39:16;;;;;;;5.87;5.57;;;22.10;37.20;;;;;;5051440;28;20434;-66
2021/08/25 01:41:42;;;;;;;7.47;6.90;;;22.20;37.30;;;;;;5051569;28;20419;-66
2021/08/25 01:44:08;;;;;;;7.00;6.50;;;22.10;37.30;;;;;;5051494;28;20460;-66
2021/08/25 01:46:35;;;;;;;6.37;5.97;;;22.10;37.30;;;;;;5051397;28;20186;-66
2021/08/25 01:49:05;;;;;;;6.80;6.30;;;22.10;37.30;;;;;;5051429;28;20204;-66
2021/08/25 01:51:31;;;;;;;6.90;6.40;;;22.10;37.30;;;;;;5051240;28;20453;-66
2021/08/25 01:53:58;;;;;;;6.43;6.03;;;22.10;37.30;;;;;;5051449;28;20410;-66
2021/08/25 01:56:25;;;;;;;7.93;7.33;;;22.10;38.00;;;;;;5051125;28;20919;-66
2021/08/25 01:58:51;;;;;;;7.33;6.73;;;22.10;37.30;;;;;;5051228;28;20877;-66
2021/08/25 02:01:16;;;;;;;6.13;5.73;;;22.10;37.30;;;;;;5051373;28;20418;-66
2021/08/25 02:03:42;;;;;;;6.50;6.10;;;22.10;37.40;;;;;;5051352;28;20472;-66
2021/08/25 02:06:08;;;;;;;6.80;6.30;;;22.10;37.30;;;;;;5051120;28;20184;-66
2021/08/25 02:08:33;;;;;;;6.20;5.80;;;22.10;37.40;;;;;;5051172;28;20204;-66
2021/08/25 02:10:59;;;;;;;7.47;6.90;;;22.10;37.30;;;;;;5051211;28;20207;-66
2021/08/25 02:13:25;;;;;;;6.47;5.97;;;22.10;37.30;;;;;;5051407;28;20206;-66
2021/08/25 02:15:51;;;;;;;6.37;5.97;;;22.10;37.30;;;;;;5051021;28;20196;-66
2021/08/25 02:18:17;;;;;;;8.10;7.40;;;22.10;37.30;;;;;;5051039;28;20531;-66
2021/08/25 02:20:43;;;;;;;6.80;6.40;;;22.10;37.30;;;;;;5051082;28;20282;-66
2021/08/25 02:23:09;;;;;;;7.37;6.87;;;22.10;38.00;;;;;;5051162;28;20250;-66
2021/08/25 02:25:34;;;;;;;5.80;5.40;;;22.10;37.30;;;;;;5052663;28;20418;-65
2021/08/25 02:28:00;;;;;;;6.40;5.67;;;22.10;37.20;;;;;;5054790;28;20211;-65
2021/08/25 02:30:25;;;;;;;6.60;6.20;;;22.10;37.30;;;;;;5054533;28;20212;-65
2021/08/25 02:32:51;;;;;;;6.90;6.50;;;22.10;37.30;;;;;;5054875;28;20184;-65
2021/08/25 02:35:16;;;;;;;7.03;6.53;;;22.10;37.30;;;;;;5054293;28;20539;-65
2021/08/25 02:37:42;;;;;;;6.37;5.97;;;22.10;37.30;;;;;;5054745;28;20207;-65
2021/08/25 02:40:10;;;;;;;6.40;6.00;;;22.10;38.00;;;;;;5054538;28;20248;-65
2021/08/25 02:42:36;;;;;;;6.63;6.23;;;22.10;37.30;;;;;;5054538;28;20180;-65
2021/08/25 02:45:04;;;;;;;6.80;6.30;;;22.10;37.30;;;;;;5054256;28;20415;-65
2021/08/25 02:47:29;;;;;;;6.80;6.40;;;22.10;37.30;;;;;;5054391;28;20195;-65
2021/08/25 02:49:55;;;;;;;5.63;5.23;;;22.00;37.20;;;;;;5054200;28;20536;-65
2021/08/25 02:52:21;;;;;;;6.30;5.90;;;22.00;37.20;;;;;;5054235;28;20223;-65
2021/08/25 02:54:46;;;;;;;5.80;5.40;;;22.00;37.30;;;;;;5053990;28;20266;-65
2021/08/25 02:57:12;;;;;;;6.73;6.27;;;22.10;37.30;;;;;;5054149;28;20192;-65
2021/08/25 02:59:37;;;;;;;7.30;6.80;;;22.10;37.40;;;;;;5054155;28;20185;-65
2021/08/25 03:02:03;;;;;;;7.03;6.53;;;22.00;37.30;;;;;;5054196;28;20448;-65
2021/08/25 03:04:29;;;;;;;6.40;5.90;;;22.00;37.30;;;;;;5054253;28;20259;-65
2021/08/25 03:06:54;;;;;;;7.10;6.57;;;22.00;37.30;;;;;;5053958;28;20188;-65
2021/08/25 03:09:20;;;;;;;6.47;5.90;;;22.00;37.30;;;;;;5053844;28;20662;-65
2021/08/25 03:11:45;;;;;;;7.03;6.57;;;22.00;37.40;;;;;;5053952;28;20210;-65
2021/08/25 03:14:11;;;;;;;6.77;6.27;;;22.00;37.30;;;;;;5054209;28;20237;-65
2021/08/25 03:16:36;;;;;;;7.20;6.70;;;22.00;37.30;;;;;;5053726;28;20180;-66
2021/08/25 03:19:02;;;;;;;7.20;6.53;;;22.00;37.30;;;;;;5053657;28;20222;-65
2021/08/25 03:21:28;;;;;;;6.70;6.20;;;22.00;37.30;;;;;;5053831;28;20180;-66
2021/08/25 03:23:53;;;;;;;6.93;6.50;;;22.00;37.30;;;;;;5053908;28;20183;-66
2021/08/25 03:26:18;;;;;;;5.87;5.57;;;22.00;37.30;;;;;;5053527;28;20643;-65
2021/08/25 03:28:44;;;;;;;6.63;6.00;;;22.00;37.30;;;;;;5053596;28;20200;-65
2021/08/25 03:31:10;;;;;;;6.90;6.40;;;22.00;37.30;;;;;;5053446;28;20203;-66
2021/08/25 03:33:36;;;;;;;7.10;6.50;;;22.00;37.30;;;;;;5053489;28;20649;-65
2021/08/25 03:36:02;;;;;;;6.93;6.50;;;22.00;37.30;;;;;;5053237;28;20410;-66
2021/08/25 03:38:27;;;;;;;6.97;6.57;;;22.00;37.30;;;;;;5052762;28;20196;-65
2021/08/25 03:40:53;;;;;;;6.77;6.37;;;22.00;37.20;;;;;;5053354;28;20574;-65
2021/08/25 03:43:18;;;;;;;7.00;6.60;;;22.00;37.30;;;;;;5053331;28;20646;-65
2021/08/25 03:45:44;;;;;;;6.53;6.13;;;22.00;37.20;;;;;;5053111;28;20173;-66
2021/08/25 03:48:09;;;;;;;6.70;6.20;;;22.00;37.20;;;;;;5053133;28;20616;-65
2021/08/25 03:50:35;;;;;;;6.00;5.60;;;22.10;37.40;;;;;;5053110;28;20201;-65
2021/08/25 03:53:00;;;;;;;7.10;6.60;;;22.00;37.30;;;;;;5053215;28;20251;-65
2021/08/25 03:55:26;;;;;;;5.90;5.50;;;22.00;37.30;;;;;;5052874;28;20178;-65
2021/08/25 03:57:52;;;;;;;7.57;6.97;;;22.00;37.40;;;;;;5053041;28;20204;-65
2021/08/25 04:00:17;;;;;;;6.27;5.87;;;22.00;37.40;;;;;;5052966;28;20927;-66
2021/08/25 04:02:43;;;;;;;6.80;6.33;;;22.00;37.40;;;;;;5053038;28;20168;-66
2021/08/25 04:05:09;;;;;;;6.67;6.27;;;22.00;37.40;;;;;;5052669;28;20168;-66
2021/08/25 04:07:34;;;;;;;7.63;7.07;;;22.00;37.40;;;;;;5052943;28;20188;-66
2021/08/25 04:10:00;;;;;;;6.83;6.33;;;22.00;37.40;;;;;;5053436;28;20230;-66
2021/08/25 04:12:25;;;;;;;7.13;6.63;;;22.00;37.40;;;;;;5052861;28;20685;-66
2021/08/25 04:14:51;;;;;;;6.57;6.13;;;22.00;37.40;;;;;;5052532;28;20253;-66
2021/08/25 04:17:17;;;;;;;6.40;6.00;;;22.00;37.40;;;;;;5052872;28;20176;-66
2021/08/25 04:19:42;;;;;;;6.93;6.40;;;22.00;37.40;;;;;;5052564;28;20202;-66
2021/08/25 04:22:08;;;;;;;6.70;6.10;;;22.00;37.40;;;;;;5052623;28;20180;-66
2021/08/25 04:24:35;;;;;;;6.50;6.10;;;22.00;37.40;;;;;;5052358;28;20172;-66
2021/08/25 04:27:01;;;;;;;6.73;6.33;;;22.00;37.40;;;;;;5052307;28;20521;-66
2021/08/25 04:29:26;;;;;;;6.20;5.80;;;22.00;37.40;;;;;;5052546;28;20480;-66
2021/08/25 04:31:52;;;;;;;6.67;6.17;;;22.00;37.40;;;;;;5045369;28;20201;-66
2021/08/25 04:34:17;;;;;;;6.90;6.50;;;22.00;37.40;;;;;;5012838;28;20636;-66
2021/08/25 04:36:43;;;;;;;6.53;6.00;;;22.00;37.40;;;;;;5012380;28;20181;-66
2021/08/25 04:39:08;;;;;;;7.40;6.80;;;22.00;37.50;;;;;;5012621;28;20201;-66
2021/08/25 04:41:34;;;;;;;6.60;6.20;;;22.00;37.40;;;;;;5012369;28;20177;-66
2021/08/25 04:44:00;;;;;;;7.40;6.77;;;22.00;37.60;;;;;;5012706;28;20181;-66
2021/08/25 04:46:25;;;;;;;8.37;7.57;;;22.00;37.60;;;;;;5024206;28;20184;-66
2021/08/25 04:48:50;;;;;;;10.80;7.27;;;22.00;38.30;;;;;;5032199;28;20205;-66
2021/08/25 04:51:16;;;;;;;8.67;7.73;;;22.00;38.50;;;;;;5031875;28;20200;-66
2021/08/25 04:53:41;;;;;;;7.93;7.23;;;22.00;38.80;;;;;;5032146;28;20583;-66
2021/08/25 04:56:07;;;;;;;8.13;7.37;;;22.00;38.70;;;;;;5031731;28;20171;-66
2021/08/25 04:58:34;;;;;;;8.07;7.10;;;22.00;38.70;;;;;;5031762;28;20219;-66
2021/08/25 05:00:59;;;;;;;8.23;6.73;;;22.00;38.60;;;;;;5031896;28;20173;-66
2021/08/25 05:03:25;;;;;;;7.30;6.70;;;22.00;38.50;;;;;;5032056;28;20412;-66
2021/08/25 05:05:51;;;;;;;7.90;7.10;;;22.00;38.30;;;;;;5031666;28;20272;-68
2021/08/25 05:08:16;;;;;;;7.10;6.60;;;22.00;38.20;;;;;;5030323;28;20200;-68
2021/08/25 05:10:50;;;;;;;8.80;6.67;;;22.00;38.40;;;;;;5031779;28;20227;-68
2021/08/25 05:13:16;;;;;;;7.07;6.47;;;22.00;38.80;;;;;;5030220;28;20172;-68
2021/08/25 05:15:48;;;;;;;7.77;7.23;;;22.00;38.70;;;;;;5031585;28;20410;-68
2021/08/25 05:18:13;;;;;;;6.90;6.30;;;22.00;38.40;;;;;;5031681;28;20525;-73
2021/08/25 05:20:39;;;;;;;12.30;7.27;;;22.00;38.10;;;;;;5029223;28;20558;-69
2021/08/25 05:23:04;;;;;;;8.20;7.60;;;22.00;38.70;;;;;;5031750;28;20203;-69
2021/08/25 05:25:30;;;;;;;8.63;7.93;;;22.00;37.80;;;;;;5031477;28;20483;-69
2021/08/25 05:27:56;;;;;;;8.30;7.70;;;22.00;37.80;;;;;;5031212;28;20192;-68
2021/08/25 05:30:21;;;;;;;11.40;10.33;;;22.00;37.60;;;;;;5039926;28;20638;-68
2021/08/25 05:32:51;;;;;;;10.73;10.03;;;22.00;37.50;;;;;;5051374;28;20195;-69
2021/08/25 05:35:21;;;;;;;14.53;12.67;;;22.00;37.20;;;;;;5050910;28;20222;-69
2021/08/25 05:37:47;;;;;;;11.97;10.97;;;22.00;36.90;;;;;;5051414;28;20438;-69
2021/08/25 05:40:14;;;;;;;10.67;9.90;;;22.00;36.50;;;;;;5051309;28;20419;-69
2021/08/25 05:42:40;;;;;;;9.87;9.17;;;22.00;35.80;;;;;;5050882;28;20778;-69
2021/08/25 05:45:07;;;;;;;9.90;9.20;;;22.00;35.30;;;;;;5050979;28;20506;-68
2021/08/25 05:47:32;;;;;;;10.43;9.63;;;21.90;35.00;;;;;;5051427;28;20484;-69
2021/08/25 05:49:58;;;;;;;9.80;8.90;;;21.90;34.50;;;;;;5051306;28;20418;-68
2021/08/25 05:52:23;;;;;;;9.73;9.00;;;21.90;34.10;;;;;;5051386;28;20200;-69
2021/08/25 05:54:49;;;;;;;8.93;8.23;;;21.90;33.90;;;;;;5045476;28;20267;-69
2021/08/25 05:57:14;;;;;;;8.70;8.10;;;21.80;33.50;;;;;;5049614;28;20184;-68
2021/08/25 05:59:40;;;;;;;9.57;8.77;;;21.80;33.70;;;;;;5050366;28;20482;-66
2021/08/25 06:02:05;;;;;;;9.77;8.87;;;21.90;33.90;;;;;;5054849;28;20219;-67
2021/08/25 06:04:31;;;;;;;10.17;9.23;;;21.90;34.20;;;;;;5054946;28;20613;-66
2021/08/25 06:06:56;;;;;;;10.70;8.00;;;21.90;34.20;;;;;;5054786;28;20230;-69
2021/08/25 06:09:22;;;;;;;9.97;8.90;;;21.90;34.00;;;;;;5054966;28;20204;-66
2021/08/25 06:11:48;;;;;;;9.00;8.10;;;21.90;34.00;;;;;;5054511;28;20195;-67
2021/08/25 06:14:13;;;;;;;8.40;7.70;;;21.90;33.90;;;;;;5055038;28;20175;-67
2021/08/25 06:16:39;;;;;;;8.90;8.10;;;21.80;33.70;;;;;;5054572;28;20548;-67
2021/08/25 06:19:05;;;;;;;8.53;7.80;;;21.80;33.70;;;;;;5054721;28;20708;-67
2021/08/25 06:21:31;;;;;;;8.77;7.97;;;21.80;33.60;;;;;;5054983;28;20193;-66
2021/08/25 06:23:56;;;;;;;9.13;8.47;;;21.80;33.50;;;;;;5054796;28;20406;-67
2021/08/25 06:26:22;;;;;;;8.57;7.90;;;21.80;33.40;;;;;;5054295;28;20175;-67
2021/08/25 06:28:48;;;;;;;8.13;7.53;;;21.80;33.40;;;;;;5054175;28;20241;-67
2021/08/25 06:31:13;;;;;;;8.27;7.67;;;21.80;33.30;;;;;;5054524;28;20208;-67
2021/08/25 06:33:39;;;;;;;8.20;7.50;;;21.80;33.20;;;;;;5054195;28;20164;-68
2021/08/25 06:36:05;;;;;;;8.17;7.47;;;21.80;33.00;;;;;;5047836;28;20255;-69
2021/08/25 06:38:30;;;;;;;8.03;7.23;;;21.80;33.00;;;;;;5049639;28;20470;-70
2021/08/25 06:40:56;;;;;;;8.87;8.00;;;21.70;33.10;;;;;;5035581;28;20195;-67
2021/08/25 06:43:21;;;;;;;10.60;7.37;;;21.80;33.40;;;;;;5036199;28;20263;-68
2021/08/25 06:45:47;;;;;;;8.43;7.80;;;21.70;33.30;;;;;;5033796;28;20625;-67
2021/08/25 06:48:13;;;;;;;9.03;8.17;;;21.70;33.40;;;;;;5049006;28;20258;-67
2021/08/25 06:50:38;;;;;;;8.33;7.50;;;21.70;33.50;;;;;;5053826;28;20287;-67
2021/08/25 06:53:04;;;;;;;9.47;8.03;;;21.70;33.50;;;;;;5053945;28;20172;-66
2021/08/25 06:55:29;;;;;;;9.03;7.47;;;21.70;33.50;;;;;;5054255;28;20179;-67
2021/08/25 06:57:55;;;;;;;8.20;7.47;;;21.80;33.60;;;;;;5053681;28;20199;-67
2021/08/25 07:00:21;;;;;;;6.87;6.33;;;21.70;33.40;;;;;;5053859;28;20603;-68
2021/08/25 07:02:47;;;;;;;8.13;7.60;;;21.70;33.40;;;;;;5047707;28;20184;-67
2021/08/25 07:05:12;;;;;;;7.20;6.80;;;21.70;33.40;;;;;;5033614;28;20423;-67
2021/08/25 07:07:38;;;;;;;8.20;7.43;;;21.80;33.60;;;;;;5033870;28;20215;-67
2021/08/25 07:10:04;;;;;;;7.77;7.17;;;21.70;33.50;;;;;;5033953;28;20180;-67
2021/08/25 07:12:30;;;;;;;7.93;7.20;;;21.80;33.60;;;;;;5032568;28;20197;-68
2021/08/25 07:14:55;;;;;;;7.30;6.60;;;21.70;33.50;;;;;;5033705;28;20997;-68
2021/08/25 07:17:21;;;;;;;7.60;6.90;;;21.80;33.60;;;;;;5033687;28;20169;-67
2021/08/25 07:19:47;;;;;;;7.00;6.50;;;21.70;33.50;;;;;;5033939;28;20191;-67
2021/08/25 07:22:13;;;;;;;7.20;6.60;;;21.70;33.50;;;;;;5033740;28;20407;-67
2021/08/25 07:24:39;;;;;;;7.23;6.63;;;21.70;33.60;;;;;;5033477;28;20176;-66
2021/08/25 07:27:05;;;;;;;7.70;7.10;;;21.80;33.70;;;;;;5033518;28;20176;-67
2021/08/25 07:29:31;;;;;;;6.77;6.27;;;21.70;33.60;;;;;;5042025;28;20809;-68
2021/08/25 07:31:57;;;;;;;7.90;7.30;;;21.70;33.70;;;;;;5053370;28;20816;-67
2021/08/25 07:34:22;;;;;;;7.60;7.00;;;21.70;33.70;;;;;;5053544;28;20407;-68
2021/08/25 07:36:48;;;;;;;7.30;6.80;;;21.70;33.70;;;;;;5053323;28;20969;-68
2021/08/25 07:39:13;;;;;;;7.07;6.57;;;21.70;33.60;;;;;;5053279;28;20191;-67
2021/08/25 07:41:39;;;;;;;6.63;6.07;;;21.70;33.60;;;;;;5053180;28;20183;-67
2021/08/25 07:44:07;;;;;;;6.87;6.47;;;21.70;33.60;;;;;;5053270;28;20183;-68
2021/08/25 07:46:32;;;;;;;7.23;6.70;;;21.70;33.70;;;;;;5052795;28;20191;-68
2021/08/25 07:49:00;;;;;;;6.77;6.37;;;21.70;33.70;;;;;;5051327;28;20430;-69
2021/08/25 07:51:26;;;;;;;7.90;7.20;;;21.70;33.60;;;;;;5051249;28;20203;-68
2021/08/25 07:53:51;;;;;;;7.33;6.87;;;21.70;33.60;;;;;;5051668;28;20423;-70
2021/08/25 07:56:17;;;;;;;8.20;7.60;;;21.80;33.70;;;;;;5052540;28;20180;-67
2021/08/25 07:58:42;;;;;;;7.10;6.53;;;21.80;33.60;;;;;;5052899;28;20239;-68
2021/08/25 08:01:08;;;;;;;8.30;7.47;;;21.80;33.70;;;;;;5052690;28;20168;-67
2021/08/25 08:03:33;;;;;;;7.23;6.63;;;21.80;33.70;;;;;;5052956;28;20182;-68
2021/08/25 08:05:59;;;;;;;7.10;6.60;;;21.80;33.70;;;;;;5052571;28;20172;-68
2021/08/25 08:08:25;;;;;;;7.20;6.50;;;21.80;33.80;;;;;;5045853;28;20731;-70
2021/08/25 08:10:52;;;;;;;6.80;6.30;;;21.80;33.70;;;;;;5050816;28;20238;-69
2021/08/25 08:13:18;;;;;;;7.43;6.93;;;21.80;33.70;;;;;;5052513;28;20924;-70
2021/08/25 08:15:45;;;;;;;6.80;6.30;;;21.80;33.70;;;;;;5052397;28;20448;-68
2021/08/25 08:18:12;;;;;;;6.13;5.70;;;21.80;33.80;;;;;;5052139;28;20450;-69
2021/08/25 08:20:38;;;;;;;6.63;6.13;;;21.80;33.90;;;;;;5052485;28;20831;-69
2021/08/25 08:23:04;;;;;;;7.17;6.67;;;21.90;34.20;;;;;;5051878;28;20454;-69
2021/08/25 08:25:29;;;;;;;7.30;6.73;;;21.90;34.80;;;;;;5051832;28;20191;-70
2021/08/25 08:27:55;;;;;;;6.77;6.23;;;21.90;34.70;;;;;;5052044;28;20948;-69
2021/08/25 08:30:20;;;;;;;6.50;6.10;;;21.90;34.50;;;;;;5047857;28;20180;-68
2021/08/25 08:32:46;;;;;;;7.00;6.50;;;21.90;34.30;;;;;;5040372;28;20175;-70
2021/08/25 08:35:11;;;;;;;7.40;6.80;;;22.00;34.30;;;;;;5051639;28;20646;-69
2021/08/25 08:37:37;;;;;;;7.17;6.57;;;22.00;34.10;;;;;;5052091;28;20670;-68
2021/08/25 08:40:04;;;;;;;8.23;6.60;;;22.00;33.90;;;;;;5051473;28;20176;-64
2021/08/25 08:42:32;;;;;;;5.70;5.40;;;22.10;33.70;;;;;;5052208;28;20183;-66
2021/08/25 08:44:59;;;;;;;6.43;5.90;;;22.10;33.50;;;;;;5051703;28;20411;-65
2021/08/25 08:47:26;;;;;;;6.67;6.23;;;22.20;33.20;;;;;;5051733;28;20402;-65
2021/08/25 08:49:57;;;;;;;6.57;6.07;;;22.20;33.10;;;;;;5052114;28;20415;-63
2021/08/25 08:52:24;;;;;;;6.90;6.40;;;22.30;33.00;;;;;;5051412;28;20454;-65
2021/08/25 08:54:50;;;;;;;6.73;6.20;;;22.30;32.90;;;;;;5012194;28;20408;-65
2021/08/25 08:57:20;;;;;;;6.73;6.23;;;22.30;32.70;;;;;;5012077;28;20454;-64
2021/08/25 08:59:45;;;;;;;5.90;5.40;;;22.40;32.60;;;;;;5012174;28;20408;-65
2021/08/25 09:02:12;;;;;;;6.10;5.70;;;22.40;32.60;;;;;;5011832;28;20439;-64
2021/08/25 09:04:43;;;;;;;6.30;5.80;;;22.40;32.60;;;;;;5012125;28;20268;-64
2021/08/25 09:07:19;;;;;;;6.37;5.87;;;22.50;32.60;;;;;;5011859;28;20459;-64
2021/08/25 09:09:56;;;;;;;6.60;6.10;;;22.50;32.50;;;;;;5012052;28;20820;-64
2021/08/25 09:12:22;;;;;;;5.30;4.90;;;22.50;32.50;;;;;;5011960;28;20458;-64
2021/08/25 09:14:48;;;;;;;6.67;6.17;;;22.60;32.50;;;;;;5012009;28;20440;-66
2021/08/25 09:17:26;;;;;;;6.77;6.33;;;22.60;32.10;;;;;;5011591;28;20519;-65
2021/08/25 09:20:04;;;;;;;5.80;5.40;;;22.60;32.20;;;;;;5011390;28;20780;-65
2021/08/25 09:22:30;;;;;;;6.50;5.90;;;22.60;32.10;;;;;;5011738;28;20974;-65
2021/08/25 09:24:56;;;;;;;6.03;5.30;;;22.70;32.20;;;;;;5011350;28;20412;-65
2021/08/25 09:27:22;;;;;;;6.00;5.60;;;22.70;32.30;;;;;;5011851;28;20609;-65
2021/08/25 09:29:56;;;;;;;6.00;5.60;;;22.60;32.10;;;;;;5011762;28;20173;-65
2021/08/25 09:32:24;;;;;;;5.97;5.50;;;22.70;32.20;;;;;;5012037;28;20540;-66
2021/08/25 09:35:01;;;;;;;6.03;5.63;;;22.70;32.30;;;;;;5016876;28;20444;-67
2021/08/25 09:37:28;;;;;;;6.47;5.50;;;22.70;32.30;;;;;;5055542;28;20410;-66
2021/08/25 09:39:58;;;;;;;5.40;5.00;;;22.70;32.30;;;;;;5055644;28;20779;-68
2021/08/25 09:42:24;;;;;;;5.70;5.30;;;22.70;32.20;;;;;;5055143;28;20568;-68
2021/08/25 09:45:05;;;;;;;5.87;5.47;;;22.70;32.20;;;;;;5055374;28;20502;-67
2021/08/25 09:47:46;;;;;;;5.67;5.30;;;22.70;32.20;;;;;;5055216;28;20890;-68
2021/08/25 09:50:15;;;;;;;6.07;5.57;;;22.70;32.20;;;;;;5055073;28;20442;-67
2021/08/25 09:52:41;;;;;;;5.80;5.40;;;22.70;32.20;;;;;;5055087;28;20414;-68
2021/08/25 09:55:07;;;;;;;6.17;5.60;;;22.70;32.30;;;;;;5054892;28;20471;-65
2021/08/25 09:57:38;;;;;;;6.07;5.60;;;22.70;32.20;;;;;;5054982;28;20442;-66
2021/08/25 10:00:05;;;;;;;5.93;5.53;;;22.70;32.20;;;;;;5055253;28;20321;-66
2021/08/25 10:02:31;;;;;;;5.60;5.20;;;22.70;32.20;;;;;;5054913;28;20453;-69
2021/08/25 10:04:57;;;;;;;5.63;5.23;;;22.70;32.20;;;;;;5047676;28;20450;-69
2021/08/25 10:07:22;;;;;;;6.30;5.90;;;22.70;32.20;;;;;;5053445;28;20344;-69
2021/08/25 10:09:48;;;;;;;6.40;5.90;;;22.70;32.20;;;;;;5054778;28;20176;-67
2021/08/25 10:12:15;;;;;;;6.30;5.80;;;22.70;32.20;;;;;;5054967;28;20234;-69
2021/08/25 10:14:40;;;;;;;6.67;6.17;;;22.70;32.20;;;;;;5054362;28;20530;-68
2021/08/25 10:17:06;;;;;;;5.03;4.73;;;22.80;32.30;;;;;;5054822;28;20429;-67
2021/08/25 10:19:37;;;;;;;5.30;4.90;;;22.70;32.30;;;;;;5054931;28;20206;-66
2021/08/25 10:22:14;;;;;;;6.47;5.90;;;22.70;32.20;;;;;;5044244;28;20535;-70
2021/08/25 10:24:48;;;;;;;6.20;5.70;;;22.70;32.20;;;;;;5051936;28;20448;-70
2021/08/25 10:27:14;;;;;;;6.03;5.50;;;22.70;32.20;;;;;;5054566;28;20515;-70
2021/08/25 10:30:05;;;;;;;5.17;4.87;;;22.70;32.30;;;;;;5054732;28;20464;-71
2021/08/25 10:32:33;;;;;;;6.07;5.57;;;22.80;32.30;;;;;;5054288;28;20454;-68
2021/08/25 10:35:11;;;;;;;5.63;5.23;;;22.80;32.30;;;;;;5053979;28;20924;-69
2021/08/25 10:37:37;;;;;;;5.67;5.27;;;22.90;31.80;;;;;;5054316;28;20437;-66
2021/08/25 10:40:04;;;;;;;5.10;4.70;;;22.90;31.40;;;;;;5054294;28;20414;-68
2021/08/25 10:42:46;;;;;;;4.97;4.57;;;22.90;31.30;;;;;;5053950;28;20453;-66
2021/08/25 10:45:13;;;;;;;5.10;4.70;;;23.00;31.30;;;;;;5054213;28;20407;-71
2021/08/25 10:48:02;;;;;;;5.13;4.40;;;23.00;31.10;;;;;;5053230;28;20466;-70
2021/08/25 10:50:50;;;;;;;4.90;4.60;;;23.00;30.60;;;;;;5053925;28;20406;-67
2021/08/25 10:53:28;;;;;;;5.10;4.70;;;23.00;30.60;;;;;;5053650;28;20411;-67
2021/08/25 10:56:13;;;;;;;5.47;5.00;;;23.00;30.60;;;;;;5053813;28;20436;-67
2021/08/25 10:58:45;;;;;;;5.20;4.80;;;23.10;30.50;;;;;;5053466;28;20450;-67
2021/08/25 11:01:36;;;;;;;5.07;4.67;;;23.10;30.40;;;;;;5054017;28;20476;-67
2021/08/25 11:04:19;;;;;;;5.23;4.83;;;23.10;30.10;;;;;;5053849;28;20413;-67
2021/08/25 11:06:51;;;;;;;4.87;4.47;;;23.10;30.00;;;;;;5053658;28;20418;-66
2021/08/25 11:09:22;;;;;;;5.77;5.37;;;23.10;30.00;;;;;;5053676;28;20466;-65
2021/08/25 11:11:54;;;;;;;5.57;5.17;;;23.10;30.00;;;;;;5053482;28;20454;-64
2021/08/25 11:14:34;;;;;;;4.50;4.07;;;23.10;30.20;;;;;;5053642;28;20451;-65
2021/08/25 11:17:16;;;;;;;4.90;4.60;;;23.10;30.40;;;;;;5053945;28;20406;-64
2021/08/25 11:19:47;;;;;;;5.20;4.80;;;23.10;30.30;;;;;;5053834;28;21005;-65
2021/08/25 11:22:35;;;;;;;5.83;4.60;;;23.00;30.20;;;;;;5053347;28;20513;-68
2021/08/25 11:25:18;;;;;;;5.37;4.90;;;23.00;30.20;;;;;;5046730;28;20799;-67
2021/08/25 11:27:45;;;;;;;5.30;4.90;;;23.00;30.30;;;;;;5051510;28;20492;-69
2021/08/25 11:30:24;;;;;;;4.87;4.47;;;22.90;30.30;;;;;;5053341;28;20498;-67
2021/08/25 11:32:54;;;;;;;5.73;5.23;;;23.00;30.50;;;;;;5052966;28;20402;-66
2021/08/25 11:35:26;;;;;;;5.60;5.07;;;23.00;30.40;;;;;;5052702;28;20391;-65
2021/08/25 11:37:52;;;;;;;5.57;5.13;;;23.00;30.50;;;;;;5053212;28;20429;-64
2021/08/25 11:40:22;;;;;;;5.57;5.17;;;23.00;30.50;;;;;;5053194;28;20489;-67
2021/08/25 11:42:47;;;;;;;5.53;5.13;;;23.00;30.50;;;;;;5052703;28;20452;-68
2021/08/25 11:45:21;;;;;;;5.33;4.97;;;23.00;30.60;;;;;;5052909;28;20896;-66
2021/08/25 11:47:52;;;;;;;5.60;5.10;;;23.00;30.60;;;;;;5053237;28;20199;-67
2021/08/25 11:50:20;;;;;;;4.93;4.63;;;22.90;30.60;;;;;;5052977;28;20402;-68
2021/08/25 11:52:46;;;;;;;5.30;4.90;;;22.90;30.70;;;;;;5052934;28;20756;-66
2021/08/25 11:55:12;;;;;;;5.60;5.20;;;23.00;30.70;;;;;;5052496;28;20434;-67
2021/08/25 11:57:41;;;;;;;5.10;4.70;;;23.00;30.60;;;;;;5051881;28;20442;-66
2021/08/25 12:00:07;;;;;;;5.53;5.03;;;23.00;30.60;;;;;;5052583;28;20203;-69
2021/08/25 12:02:52;;;;;;;6.43;5.93;;;23.00;30.50;;;;;;5052673;28;20464;-68
2021/08/25 12:05:38;;;;;;;5.33;4.83;;;23.00;30.50;;;;;;5051841;28;20437;-65
2021/08/25 12:08:11;;;;;;;5.57;5.17;;;23.00;30.40;;;;;;5052001;28;20438;-67
2021/08/25 12:10:44;;;;;;;5.30;4.90;;;23.00;30.40;;;;;;5052074;28;20438;-65
2021/08/25 12:13:12;;;;;;;5.50;5.10;;;23.00;30.50;;;;;;5041566;28;20433;-65
2021/08/25 12:15:52;;;;;;;6.00;5.50;;;22.90;30.20;;;;;;5032326;28;20411;-65
2021/08/25 12:18:22;;;;;;;5.47;4.97;;;22.90;30.40;;;;;;5047418;28;20445;-65
2021/08/25 12:20:54;;;;;;;5.60;5.10;;;22.80;30.40;;;;;;5052273;28;20415;-66
2021/08/25 12:23:22;;;;;;;5.70;5.20;;;22.80;30.40;;;;;;5052136;28;20428;-67
2021/08/25 12:25:50;;;;;;;5.47;5.00;;;22.80;30.40;;;;;;5052003;28;20410;-67
2021/08/25 12:28:30;;;;;;;6.07;5.47;;;22.80;30.30;;;;;;5052299;28;20442;-65
2021/08/25 12:31:15;;;;;;;5.27;4.87;;;22.70;30.20;;;;;;5052449;28;20505;-65
2021/08/25 12:33:43;;;;;;;5.97;5.47;;;22.80;30.00;;;;;;5051890;28;20967;-66
2021/08/25 12:36:26;;;;;;;7.77;5.67;;;22.80;30.10;;;;;;5051980;28;20410;-65
2021/08/25 12:38:53;;;;;;;5.90;5.40;;;22.70;30.00;;;;;;5052034;28;20434;-65
2021/08/25 12:41:20;;;;;;;5.83;5.33;;;22.70;29.90;;;;;;5051915;28;20410;-64
2021/08/25 12:43:47;;;;;;;5.43;5.03;;;22.70;29.90;;;;;;5051711;28;20476;-66
2021/08/25 12:46:12;;;;;;;6.07;5.57;;;22.70;29.80;;;;;;5051621;28;20407;-66
2021/08/25 12:48:38;;;;;;;5.43;4.93;;;22.80;29.80;;;;;;5048209;28;20446;-66
2021/08/25 12:51:04;;;;;;;5.20;4.80;;;22.80;29.80;;;;;;5031647;28;20208;-66